EGPH - Edinburgh Airport
Distance from station: E 5mi, 14km
Updated: 06/22/2018 4:50pm
Clear
Clear
 Wind from WSW
Wind: WSW 8 mph , 13 km/h
Temperature: 50°F , 10°C
Wind Chill: 47°F , 8°C
Dew Point: 45°F , 7°C
Humidity: 82%
Barometer: 30.39 inHg , 1029 hPa
Summary: Clear
Visibility: greater than 7 miles , 10 km
2018/06/22 23:50 EGPH 222350Z 24007KT CAVOK 10/07 Q1029